Northfield Center, Ohio
Current Conditions -  °F | °C
As of 11:59 PM on Thursday 30 Oct 2014 (Local Time) from KPOV Reporting Station
Overcast Overcast  
Wind Chill: 42°   Ceiling: 4600
Heat Index: 42°   Visibility: 10mi
Dew Point: 37°   Wind: 0mph
Humidity: 83%   Direction: NA
Pressure: 30.03"   Gusts: NA
Location:  41.3128°N, 81.5476°W
Report Text: KPOV 310359Z AUTO 00000KT 10SM OVC046 06/03 A3003 RMK AO2 T00560029
Loading
Personal Weather Stations






























Interactive Weather Map
Tropical Storm Tracking
New forecast layout! Learn more

10-Day Weather Forecast

Advertisements
Track Severe Weather on mobile